Time;durP1;ratioP1;P1;durP2;ratioP2;P2;SDS_P1;SDS_P2;PMS_P1;PMS_P2;Temp;Humidity;BMP_temperature;BMP_pressure;BME280_temperature;BME280_humidity;BME280_pressure;Samples;Min_cycle;Max_cycle;Signal;HPM_P1;HPM_P2
2023/06/08 00:02:39;;;;;;;7.35;2.50;;;11.70;99.90;;;;;;5065511;28;20432;-84
2023/06/08 00:05:43;;;;;;;9.85;3.53;;;11.70;99.90;;;;;;5052399;28;20045;-83
2023/06/08 00:08:35;;;;;;;11.45;2.97;;;11.70;99.90;;;;;;5051976;28;20045;-83
2023/06/08 00:11:15;;;;;;;9.00;3.58;;;11.70;99.90;;;;;;5047202;28;20051;-82
2023/06/08 00:14:10;;;;;;;13.63;3.80;;;11.70;99.90;;;;;;5071876;28;20044;-84
2023/06/08 00:31:48;;;;;;;8.95;4.15;;;11.60;99.90;;;;;;5010995;28;20518;-84
2023/06/08 00:34:48;;;;;;;;;;;;;;;;;;;;;
2023/06/08 00:37:30;;;;;;;11.40;3.92;;;11.70;99.90;;;;;;4995774;28;20046;-85
2023/06/08 00:40:24;;;;;;;10.32;3.40;;;11.60;99.90;;;;;;5029821;28;20041;-83
2023/06/08 00:43:17;;;;;;;7.78;2.75;;;11.60;99.90;;;;;;5032726;28;20143;-82
2023/06/08 00:46:18;;;;;;;;;;;;;;;;;;;;;
2023/06/08 00:48:56;;;;;;;11.43;3.78;;;11.60;99.90;;;;;;5015853;28;20053;-85
2023/06/08 01:40:02;;;;;;;8.73;3.47;;;11.70;99.90;;;;;;5082994;28;20112;-83
2023/06/08 01:42:53;;;;;;;10.93;3.30;;;11.70;99.90;;;;;;5098937;28;20048;-83
2023/06/08 01:45:45;;;;;;;11.95;3.75;;;11.80;99.90;;;;;;5115216;28;20040;-83
2023/06/08 01:48:25;;;;;;;8.25;3.80;;;11.70;99.90;;;;;;5097151;28;20453;-83
2023/06/08 01:51:10;;;;;;;7.43;3.63;;;11.70;99.90;;;;;;5115190;28;20047;-84
2023/06/08 01:54:00;;;;;;;10.33;3.80;;;11.70;99.90;;;;;;5114633;28;20404;-85
2023/06/08 01:56:38;;;;;;;11.95;4.57;;;11.70;99.90;;;;;;5096506;28;20633;-83
2023/06/08 02:03:12;;;;;;;7.90;2.70;;;11.60;99.90;;;;;;5104121;28;20038;-82
2023/06/08 02:05:49;;;;;;;5.57;2.65;;;11.60;99.90;;;;;;5114765;28;20365;-83
2023/06/08 02:08:39;;;;;;;5.32;2.85;;;11.70;99.90;;;;;;5114665;28;20510;-83
2023/06/08 02:11:30;;;;;;;6.95;3.47;;;11.70;99.90;;;;;;5114712;28;20051;-84
2023/06/08 02:14:24;;;;;;;5.32;2.15;;;11.70;99.90;;;;;;5114708;28;20047;-83
2023/06/08 02:17:03;;;;;;;6.20;2.60;;;11.80;99.90;;;;;;5113548;28;20052;-83
2023/06/08 02:19:37;;;;;;;6.65;2.95;;;11.80;99.90;;;;;;5045930;28;20056;-84
2023/06/08 02:33:33;;;;;;;7.68;2.65;;;11.80;99.90;;;;;;5109539;28;20073;-83
2023/06/08 02:36:25;;;;;;;10.50;3.03;;;11.80;99.90;;;;;;5093906;28;20036;-82
2023/06/08 02:39:08;;;;;;;6.60;3.13;;;11.80;99.90;;;;;;5063248;28;20047;-84
2023/06/08 02:41:55;;;;;;;8.15;3.00;;;11.70;99.90;;;;;;5113298;28;20055;-85
2023/06/08 02:44:46;;;;;;;5.07;2.58;;;11.70;99.90;;;;;;5113936;28;20047;-86
2023/06/08 02:47:26;;;;;;;10.32;3.05;;;11.70;99.90;;;;;;5112699;28;20043;-84
2023/06/08 02:50:18;;;;;;;;;;;;;;;;;;;;;
2023/06/08 03:00:29;;;;;;;4.32;1.95;;;11.70;99.90;;;;;;5113360;28;20145;-84
2023/06/08 03:03:33;;;;;;;;;;;;;;;;;;;;;
2023/06/08 03:06:24;;;;;;;;;;;;;;;;;;;;;
2023/06/08 03:09:14;;;;;;;;;;;;;;;;;;;;;
2023/06/08 03:12:06;;;;;;;;;;;;;;;;;;;;;
2023/06/08 03:14:48;;;;;;;6.20;2.22;;;11.80;99.90;;;;;;5092777;28;20047;-84
2023/06/08 03:17:23;;;;;;;9.93;2.28;;;11.80;99.90;;;;;;5092527;28;20040;-84
2023/06/08 03:20:08;;;;;;;9.00;2.20;;;11.80;99.90;;;;;;5092731;28;20043;-84
2023/06/08 03:22:45;;;;;;;7.13;1.80;;;11.80;99.90;;;;;;5074270;28;20054;-83
2023/06/08 03:25:36;;;;;;;6.72;1.70;;;11.80;99.90;;;;;;5091915;28;20529;-83
2023/06/08 03:28:10;;;;;;;5.82;2.00;;;11.80;99.90;;;;;;5092474;28;20083;-83
2023/06/08 03:30:55;;;;;;;8.95;1.92;;;11.90;99.90;;;;;;5093102;28;20097;-83
2023/06/08 03:33:40;;;;;;;8.55;2.42;;;11.90;99.90;;;;;;5090846;28;20389;-84
2023/06/08 03:36:28;;;;;;;6.75;2.60;;;11.90;99.90;;;;;;5093020;28;20056;-84
2023/06/08 03:39:04;;;;;;;6.13;2.05;;;11.90;99.90;;;;;;5074883;28;20040;-84
2023/06/08 03:41:49;;;;;;;8.30;2.00;;;11.90;99.90;;;;;;5092211;28;20078;-83
2023/06/08 03:44:18;;;;;;;6.60;2.78;;;11.90;99.90;;;;;;5076605;28;20048;-84
2023/06/08 03:47:03;;;;;;;6.50;2.17;;;11.90;99.90;;;;;;5093280;28;20047;-84
2023/06/08 03:49:52;;;;;;;5.72;1.58;;;11.90;99.90;;;;;;5092782;28;20048;-83
2023/06/08 03:52:28;;;;;;;8.13;2.17;;;11.90;99.90;;;;;;5058216;28;20048;-83
2023/06/08 03:55:21;;;;;;;10.05;2.25;;;11.90;99.90;;;;;;5094721;28;20054;-84
2023/06/08 03:57:56;;;;;;;7.07;2.13;;;11.90;99.90;;;;;;5075472;28;20078;-84
2023/06/08 04:00:53;;;;;;;7.80;2.28;;;11.90;99.90;;;;;;5092919;28;20076;-84
2023/06/08 04:03:26;;;;;;;4.95;2.45;;;12.00;99.90;;;;;;5057403;28;20062;-85
2023/06/08 04:06:23;;;;;;;5.95;2.30;;;11.90;99.90;;;;;;5092874;28;20043;-84
2023/06/08 04:09:11;;;;;;;7.80;2.20;;;12.00;99.90;;;;;;5092567;28;20182;-84
2023/06/08 04:11:52;;;;;;;7.00;2.55;;;12.00;99.90;;;;;;5092984;28;20044;-83
2023/06/08 04:14:44;;;;;;;6.05;2.38;;;12.00;99.90;;;;;;5093126;28;20050;-84
2023/06/08 04:17:27;;;;;;;9.23;2.58;;;12.10;99.90;;;;;;5096484;28;20044;-84
2023/06/08 04:20:08;;;;;;;9.90;2.90;;;12.10;99.90;;;;;;5096012;28;20542;-84
2023/06/08 05:07:42;;;;;;;13.95;3.00;;;12.40;99.90;;;;;;5102170;28;20059;-84
2023/06/08 05:10:26;;;;;;;9.82;2.75;;;12.50;99.90;;;;;;5086981;28;20048;-83
2023/06/08 05:13:06;;;;;;;7.47;2.05;;;12.50;99.90;;;;;;5105448;28;20048;-85
2023/06/08 05:15:50;;;;;;;7.10;1.88;;;12.50;99.90;;;;;;5103861;28;20040;-85
2023/06/08 05:18:31;;;;;;;8.50;1.95;;;12.50;99.90;;;;;;5103990;28;20549;-85
2023/06/08 05:21:20;;;;;;;11.13;1.80;;;12.60;99.90;;;;;;5105614;28;20051;-85
2023/06/08 05:24:01;;;;;;;;;;;12.70;99.90;;;;;;5105533;28;20055;-85
2023/06/08 05:26:46;;;;;;;;;;;;;;;;;;;;;
2023/06/08 05:29:23;;;;;;;4.25;1.80;;;12.60;99.90;;;;;;5092090;28;20059;-83
2023/06/08 05:32:04;;;;;;;8.85;2.70;;;12.80;99.90;;;;;;5095071;28;20078;-83
2023/06/08 05:34:53;;;;;;;8.10;1.90;;;12.70;99.90;;;;;;5094990;28;20051;-85
2023/06/08 05:37:43;;;;;;;10.05;2.75;;;12.80;99.90;;;;;;5094738;28;20048;-84
2023/06/08 05:40:24;;;;;;;7.35;3.17;;;12.80;99.90;;;;;;5076811;28;20048;-86
2023/06/08 05:43:19;;;;;;;8.38;1.88;;;12.80;99.90;;;;;;5095047;28;20052;-84
2023/06/08 05:46:14;;;;;;;5.57;2.08;;;12.90;99.90;;;;;;5095231;28;20135;-84
2023/06/08 05:48:54;;;;;;;8.95;2.28;;;13.00;99.90;;;;;;5043217;28;20459;-85
2023/06/08 05:51:27;;;;;;;13.48;2.47;;;13.00;99.90;;;;;;5095168;28;20048;-83
2023/06/08 05:54:11;;;;;;;11.43;2.97;;;13.00;99.90;;;;;;5094973;28;20052;-84
2023/06/08 05:56:44;;;;;;;11.63;1.90;;;13.00;99.90;;;;;;5094314;28;20036;-84
2023/06/08 05:59:30;;;;;;;6.57;1.90;;;13.10;99.90;;;;;;5094455;28;20048;-85
2023/06/08 06:02:16;;;;;;;12.13;2.38;;;13.20;99.90;;;;;;5094106;28;20052;-84
2023/06/08 06:07:54;;;;;;;;;;;;;;;;;;;;;
2023/06/08 06:10:33;;;;;;;10.32;2.40;;;13.30;99.90;;;;;;5092765;28;20101;-83
2023/06/08 06:13:21;;;;;;;7.60;2.05;;;13.30;99.90;;;;;;5096454;28;20036;-87
2023/06/08 06:16:09;;;;;;;7.05;2.10;;;13.40;99.90;;;;;;5095014;28;20109;-85
2023/06/08 06:18:55;;;;;;;5.55;2.20;;;13.40;99.90;;;;;;5102688;28;20043;-83
2023/06/08 06:21:30;;;;;;;10.45;2.28;;;13.40;99.90;;;;;;5094241;28;20047;-86
2023/06/08 06:24:15;;;;;;;6.15;2.50;;;13.50;99.90;;;;;;5094255;28;20520;-84
2023/06/08 06:26:52;;;;;;;7.28;1.90;;;13.60;99.90;;;;;;5059045;28;20112;-87
2023/06/08 06:29:35;;;;;;;6.45;1.55;;;13.70;99.90;;;;;;5094294;28;20036;-85
2023/06/08 06:32:23;;;;;;;7.85;2.20;;;13.80;99.90;;;;;;5095646;28;20040;-84
2023/06/08 06:35:02;;;;;;;12.95;2.17;;;13.80;99.90;;;;;;5093520;28;20067;-85
2023/06/08 06:37:54;;;;;;;7.15;2.00;;;13.80;99.90;;;;;;5093688;28;20097;-82
2023/06/08 06:40:38;;;;;;;4.32;1.70;;;13.70;99.90;;;;;;5092630;28;20476;-86
2023/06/08 06:43:24;;;;;;;10.57;2.15;;;13.80;99.90;;;;;;5114037;28;20043;-84
2023/06/08 07:05:11;;;;;;;9.15;2.45;;;14.50;99.90;;;;;;5093318;28;20047;-83
2023/06/08 07:07:42;;;;;;;4.55;2.28;;;14.50;99.90;;;;;;5092693;28;20143;-84
2023/06/08 07:10:17;;;;;;;8.32;2.53;;;14.60;99.90;;;;;;5093407;28;20032;-86
2023/06/08 07:13:00;;;;;;;6.95;1.85;;;14.70;99.90;;;;;;5093973;28;20458;-85
2023/06/08 07:15:33;;;;;;;9.07;2.10;;;14.80;99.90;;;;;;5041543;28;20052;-83
2023/06/08 07:18:14;;;;;;;7.78;2.25;;;15.10;99.90;;;;;;5090820;28;20129;-84
2023/06/08 07:20:52;;;;;;;8.05;1.95;;;15.20;99.90;;;;;;5093867;28;20065;-83
2023/06/08 07:23:42;;;;;;;9.07;2.60;;;15.20;99.90;;;;;;5093281;28;20454;-83
2023/06/08 07:26:19;;;;;;;7.95;2.22;;;15.30;99.90;;;;;;5102560;28;20039;-82
2023/06/08 07:28:54;;;;;;;5.93;1.60;;;15.30;99.90;;;;;;5095372;28;20438;-82
2023/06/08 07:31:42;;;;;;;8.75;1.80;;;15.50;99.90;;;;;;5113618;28;20047;-83
2023/06/08 07:34:37;;;;;;;11.45;2.03;;;15.50;99.90;;;;;;5113203;28;20052;-82
2023/06/08 07:37:20;;;;;;;9.52;2.00;;;15.40;99.90;;;;;;5095366;28;20047;-83
2023/06/08 07:39:54;;;;;;;4.65;1.73;;;15.50;99.90;;;;;;5094758;28;20123;-84
2023/06/08 07:42:27;;;;;;;9.13;2.03;;;15.70;99.90;;;;;;5112827;28;20115;-83
2023/06/08 07:45:13;;;;;;;12.75;2.28;;;15.90;99.90;;;;;;5109485;28;20423;-85
2023/06/08 07:48:04;;;;;;;;;;;;;;;;;;;;;
2023/06/08 07:50:48;;;;;;;6.53;2.30;;;15.90;99.90;;;;;;5092506;28;20044;-83
2023/06/08 07:53:37;;;;;;;5.43;1.77;;;;;;;;;;5092689;28;20047;-83
2023/06/08 07:56:12;;;;;;;6.88;1.65;;;;;;;;;;5092587;28;20047;-83
2023/06/08 07:58:54;;;;;;;9.75;3.08;;;;;;;;;;5076477;28;20048;-83
2023/06/08 08:01:39;;;;;;;13.50;3.28;;;;;;;;;;5113924;28;20122;-83
2023/06/08 08:04:12;;;;;;;12.00;2.50;;;;;;;;;;5094066;28;20048;-83
2023/06/08 08:11:13;;;;;;;8.65;1.95;;;;;;;;;;5069284;28;20114;-83
2023/06/08 08:13:53;;;;;;;8.02;2.00;;;;;;;;;;5050819;28;20051;-85
2023/06/08 08:16:38;;;;;;;8.13;1.80;;;;;;;;;;5053216;28;20127;-83
2023/06/08 08:19:13;;;;;;;7.03;1.83;;;;;;;;;;5052646;28;20103;-85
2023/06/08 08:21:57;;;;;;;8.10;2.28;;;;;;;;;;5053925;28;20055;-83
2023/06/08 08:24:41;;;;;;;8.13;1.50;;;;;;;;;;5057343;28;20045;-83
2023/06/08 08:27:29;;;;;;;12.32;1.83;;;;;;;;;;5072984;28;20087;-83
2023/06/08 08:30:01;;;;;;;10.10;1.67;;;;;;;;;;5072184;28;20048;-84
2023/06/08 09:06:23;;;;;;;11.13;1.67;;;;;;;;;;5075540;28;20440;-84
2023/06/08 09:09:08;;;;;;;5.45;1.60;;;;;;;;;;5075629;28;20045;-84
2023/06/08 09:11:48;;;;;;;;;;;;;;;;;;;;;
2023/06/08 09:14:35;;;;;;;4.72;1.35;;;;;;;;;;5115957;28;19920;-85
2023/06/08 09:17:09;;;;;;;5.43;1.58;;;;;;;;;;5088163;28;20070;-83
2023/06/08 09:19:51;;;;;;;5.40;1.38;;;;;;;;;;5059882;28;20086;-86
2023/06/08 09:22:39;;;;;;;4.95;1.60;;;;;;;;;;5094296;28;20052;-83
2023/06/08 10:05:46;;;;;;;7.07;1.30;;;;;;;;;;5114864;28;20073;-83
2023/06/08 10:08:34;;;;;;;3.63;1.33;;;;;;;;;;5114912;28;20508;-87
2023/06/08 10:11:28;;;;;;;6.95;1.75;;;;;;;;;;5097164;28;20119;-89
2023/06/08 10:14:05;;;;;;;2.70;1.20;;;;;;;;;;5054625;28;20045;-87
2023/06/08 10:16:50;;;;;;;5.40;1.45;;;;;;;;;;5054244;28;20048;-89
2023/06/08 10:19:39;;;;;;;6.55;1.33;;;;;;;;;;5054034;28;20460;-88
2023/06/08 10:22:12;;;;;;;5.68;1.58;;;;;;;;;;5053673;28;20051;-89
2023/06/08 10:24:52;;;;;;;4.55;1.10;;;;;;;;;;5035253;28;20134;-89
2023/06/08 10:30:51;;;;;;;4.07;1.27;;;;;;;;;;5068027;28;20043;-88
2023/06/08 10:33:25;;;;;;;8.27;1.52;;;;;;;;;;5073836;28;20045;-90
2023/06/08 10:36:08;;;;;;;6.28;1.40;;;;;;;;;;5068439;28;20051;-86
2023/06/08 10:39:00;;;;;;;2.95;0.80;;;;;;;;;;5053159;28;20077;-89
2023/06/08 10:41:46;;;;;;;7.03;1.30;;;;;;;;;;5053574;28;20045;-87
2023/06/08 10:44:42;;;;;;;3.25;1.15;;;;;;;;;;5053571;28;20044;-87
2023/06/08 10:47:17;;;;;;;5.32;1.30;;;;;;;;;;5053723;28;20130;-89
2023/06/08 11:01:24;;;;;;;3.92;1.10;;;20.00;99.90;;;;;;5055202;28;20060;-87
2023/06/08 11:04:01;;;;;;;4.45;0.90;;;20.10;99.90;;;;;;5058375;28;20037;-88
2023/06/08 11:06:40;;;;;;;6.47;1.30;;;19.60;99.90;;;;;;5051105;28;20049;-85
2023/06/08 11:09:14;;;;;;;4.45;0.80;;;19.70;99.90;;;;;;5051881;28;20404;-87
2023/06/08 11:12:02;;;;;;;3.22;0.90;;;19.70;99.90;;;;;;5060166;28;20059;-87
2023/06/08 11:14:40;;;;;;;3.13;0.98;;;19.80;99.90;;;;;;5058805;28;20075;-85
2023/06/08 11:17:37;;;;;;;3.92;1.20;;;19.90;99.90;;;;;;5093145;28;20139;-85
2023/06/08 11:20:26;;;;;;;3.20;0.90;;;19.90;99.90;;;;;;5092974;28;20048;-85
2023/06/08 11:37:59;;;;;;;5.30;1.23;;;20.30;99.90;;;;;;5106645;28;20123;-88
2023/06/08 11:40:41;;;;;;;2.88;1.33;;;20.20;99.90;;;;;;5106782;28;20044;-84
2023/06/08 11:43:12;;;;;;;5.38;1.25;;;19.90;99.90;;;;;;5100169;28;20039;-84
2023/06/08 11:45:40;;;;;;;6.18;1.35;;;20.20;99.90;;;;;;5099863;28;20043;-87
2023/06/08 11:48:10;;;;;;;4.03;1.48;;;20.30;99.90;;;;;;5094287;28;20043;-86
2023/06/08 11:50:48;;;;;;;5.38;1.38;;;20.10;99.90;;;;;;5113080;28;20047;-88
2023/06/08 11:53:24;;;;;;;4.90;1.02;;;20.40;99.90;;;;;;5112619;28;20035;-84
2023/06/08 11:55:57;;;;;;;6.15;1.38;;;20.40;99.90;;;;;;5092392;28;20036;-87
2023/06/08 11:58:29;;;;;;;5.28;2.03;;;20.50;99.90;;;;;;5105397;28;20043;-84
2023/06/08 12:01:11;;;;;;;3.50;0.95;;;20.40;99.90;;;;;;5095041;28;20053;-85
2023/06/08 12:03:51;;;;;;;5.10;1.00;;;20.30;99.90;;;;;;5094252;28;20079;-86
2023/06/08 12:06:26;;;;;;;7.10;1.50;;;20.60;99.90;;;;;;5112819;28;20047;-86
2023/06/08 12:08:57;;;;;;;4.03;0.93;;;20.50;99.90;;;;;;5112372;28;20110;-88
2023/06/08 12:11:27;;;;;;;4.75;1.08;;;20.40;99.90;;;;;;5111477;28;20044;-87
2023/06/08 12:13:59;;;;;;;4.70;1.17;;;20.50;99.90;;;;;;5112617;28;20089;-88
2023/06/08 12:16:42;;;;;;;3.03;1.05;;;20.40;99.90;;;;;;5111405;28;20039;-88
2023/06/08 12:19:09;;;;;;;5.18;1.00;;;20.50;99.90;;;;;;5091381;28;20039;-86
2023/06/08 12:21:46;;;;;;;5.03;1.10;;;20.30;99.90;;;;;;5074069;28;20047;-87
2023/06/08 12:24:16;;;;;;;3.50;1.17;;;20.30;99.90;;;;;;5091563;28;20080;-86
2023/06/08 12:26:46;;;;;;;3.03;0.93;;;20.70;99.90;;;;;;5091446;28;20464;-86
2023/06/08 12:29:16;;;;;;;6.63;1.45;;;20.50;99.90;;;;;;5074164;28;20040;-85
2023/06/08 12:31:43;;;;;;;5.18;1.08;;;20.50;99.90;;;;;;5092007;28;20048;-88
2023/06/08 12:34:12;;;;;;;5.57;1.30;;;20.20;99.90;;;;;;5092117;28;20028;-88
2023/06/08 12:40:24;;;;;;;3.33;0.75;;;20.20;99.90;;;;;;5098489;28;20149;-87
2023/06/08 12:42:53;;;;;;;4.03;0.90;;;20.20;99.90;;;;;;5097217;28;20036;-84
2023/06/08 12:45:21;;;;;;;6.20;1.35;;;20.20;99.90;;;;;;5095151;28;20085;-90
2023/06/08 12:47:52;;;;;;;2.88;0.93;;;20.40;99.90;;;;;;5114392;28;20071;-88
2023/06/08 12:50:22;;;;;;;5.63;0.98;;;20.50;99.90;;;;;;5116017;28;20120;-88
2023/06/08 12:52:58;;;;;;;4.88;0.90;;;20.60;99.90;;;;;;5096861;28;20039;-87
2023/06/08 12:55:25;;;;;;;3.72;0.90;;;20.90;99.90;;;;;;5112642;28;20130;-89
2023/06/08 12:57:55;;;;;;;3.97;1.20;;;21.00;99.90;;;;;;5097090;28;20052;-87
2023/06/08 13:03:52;;;;;;;2.70;0.90;;;20.50;99.90;;;;;;5108292;28;20096;-89
2023/06/08 13:06:27;;;;;;;2.75;0.88;;;20.80;99.90;;;;;;5106477;28;20149;-89
2023/06/08 13:08:53;;;;;;;1.77;0.80;;;20.90;99.90;;;;;;5089545;28;20139;-89
2023/06/08 13:11:21;;;;;;;3.88;0.85;;;21.00;99.90;;;;;;5115095;28;20046;-87
2023/06/08 13:13:53;;;;;;;6.95;0.80;;;20.80;99.90;;;;;;5097417;28;20047;-88
2023/06/08 13:16:22;;;;;;;3.80;1.10;;;20.60;99.90;;;;;;5099044;28;20044;-89
2023/06/08 13:18:48;;;;;;;4.03;1.17;;;20.30;99.90;;;;;;5076928;28;20075;-88
2023/06/08 13:21:14;;;;;;;3.45;0.90;;;20.60;99.90;;;;;;5067472;28;20124;-89
2023/06/08 13:23:42;;;;;;;4.38;1.00;;;20.50;99.90;;;;;;5107439;28;20093;-88
2023/06/08 13:26:09;;;;;;;3.72;0.82;;;21.00;99.90;;;;;;5096507;28;20044;-87
2023/06/08 13:28:35;;;;;;;5.90;1.63;;;21.10;99.90;;;;;;5090849;28;20048;-90
2023/06/08 13:31:01;;;;;;;3.17;1.10;;;21.00;99.90;;;;;;5095040;28;20558;-89
2023/06/08 13:33:34;;;;;;;4.25;1.25;;;21.10;99.90;;;;;;5095619;28;20047;-90
2023/06/08 13:36:13;;;;;;;4.07;0.90;;;20.90;99.90;;;;;;5095334;28;20051;-87
2023/06/08 13:38:53;;;;;;;5.57;0.80;;;20.90;99.90;;;;;;5094793;28;20044;-93
2023/06/08 13:41:35;;;;;;;2.65;1.00;;;20.90;99.90;;;;;;5094815;28;20054;-90
2023/06/08 13:52:12;;;;;;;5.53;0.90;;;20.80;99.90;;;;;;5097858;28;20661;-90
2023/06/08 13:54:53;;;;;;;7.88;1.48;;;20.80;99.90;;;;;;5113975;28;20100;-92
2023/06/08 13:57:23;;;;;;;3.70;1.13;;;20.80;99.90;;;;;;5109356;28;20040;-85
2023/06/08 13:59:54;;;;;;;2.83;1.00;;;20.90;99.90;;;;;;5086385;28;20050;-90
2023/06/08 14:02:28;;;;;;;4.07;1.00;;;21.10;99.90;;;;;;5108397;28;20071;-90
2023/06/08 14:05:17;;;;;;;2.80;0.80;;;21.10;99.90;;;;;;5094514;28;20052;-92
2023/06/08 14:07:53;;;;;;;5.63;1.48;;;21.00;99.90;;;;;;5075594;28;20056;-90
2023/06/08 14:10:40;;;;;;;4.40;1.10;;;21.00;99.90;;;;;;5094738;28;20040;-91
2023/06/08 14:13:10;;;;;;;4.20;1.20;;;21.10;99.90;;;;;;5093764;28;20090;-90
2023/06/08 14:15:39;;;;;;;2.85;1.00;;;21.10;99.70;;;;;;5085283;28;20054;-89
2023/06/08 14:18:08;;;;;;;4.32;0.93;;;20.90;99.90;;;;;;5096598;28;20047;-90
2023/06/08 14:20:54;;;;;;;4.10;1.20;;;21.20;99.90;;;;;;5096576;28;20445;-88
2023/06/08 14:23:30;;;;;;;4.18;1.17;;;21.10;99.90;;;;;;5096738;28;20086;-89
2023/06/08 14:26:07;;;;;;;4.32;1.08;;;20.70;99.90;;;;;;5079461;28;20483;-89
2023/06/08 14:28:51;;;;;;;5.75;1.20;;;20.70;99.90;;;;;;5076677;28;20105;-91
2023/06/08 14:31:38;;;;;;;5.38;1.25;;;20.80;99.90;;;;;;5067747;28;20048;-95
2023/06/08 16:06:58;;;;;;;7.13;1.30;;;19.70;99.90;;;;;;5072386;28;20558;-87
2023/06/08 16:09:44;;;;;;;4.28;1.00;;;19.30;99.90;;;;;;5092209;28;20051;-89
2023/06/08 16:12:28;;;;;;;5.50;1.40;;;19.30;99.90;;;;;;5093971;28;20101;-88
2023/06/08 16:14:59;;;;;;;7.38;1.63;;;19.30;99.90;;;;;;5097301;28;20079;-89
2023/06/08 16:17:35;;;;;;;7.80;1.23;;;19.50;99.90;;;;;;5098827;28;20491;-93
2023/06/08 16:20:06;;;;;;;8.10;1.25;;;19.20;99.90;;;;;;5099463;28;20047;-90
2023/06/08 16:22:41;;;;;;;6.50;1.00;;;19.10;99.90;;;;;;5099199;28;20058;-89
2023/06/08 16:25:20;;;;;;;5.63;1.33;;;19.10;99.90;;;;;;5116771;28;20040;-87
2023/06/08 16:27:55;;;;;;;5.90;1.20;;;18.60;99.90;;;;;;5116624;28;20040;-86
2023/06/08 16:30:30;;;;;;;4.55;1.00;;;18.80;99.90;;;;;;5100363;28;20052;-87
2023/06/08 16:33:11;;;;;;;6.93;1.15;;;18.50;99.90;;;;;;5095745;28;20047;-89
2023/06/08 16:36:01;;;;;;;4.32;1.05;;;18.50;99.90;;;;;;5095564;28;20400;-92
2023/06/08 16:38:54;;;;;;;3.50;0.63;;;18.40;99.90;;;;;;5096624;28;20044;-89
2023/06/08 16:41:39;;;;;;;4.90;1.20;;;18.60;99.90;;;;;;5096568;28;20131;-90
2023/06/08 16:44:14;;;;;;;4.18;0.98;;;18.40;99.90;;;;;;5043958;28;20051;-87
2023/06/08 16:46:59;;;;;;;9.50;2.17;;;18.30;99.90;;;;;;5077796;28;20048;-88
2023/06/08 17:05:16;;;;;;;7.97;1.30;;;17.60;99.90;;;;;;5116169;28;20038;-90
2023/06/08 17:07:50;;;;;;;7.90;1.33;;;17.40;99.90;;;;;;5115453;28;20090;-88
2023/06/08 17:10:32;;;;;;;4.10;0.80;;;17.50;99.90;;;;;;5098199;28;20126;-86
2023/06/08 17:13:16;;;;;;;6.57;1.00;;;17.40;99.90;;;;;;5115758;28;20039;-90
2023/06/08 17:15:55;;;;;;;7.22;1.30;;;17.50;99.90;;;;;;5063221;28;20047;-91
2023/06/08 17:18:40;;;;;;;5.73;0.83;;;17.40;99.90;;;;;;5115494;28;20054;-87
2023/06/08 17:21:34;;;;;;;9.07;2.03;;;17.60;99.90;;;;;;5104069;28;20385;-89
2023/06/08 17:24:12;;;;;;;5.43;1.08;;;17.10;99.90;;;;;;5095412;28;20051;-84
2023/06/08 17:26:50;;;;;;;9.20;1.70;;;16.90;99.90;;;;;;5077438;28;20040;-83
2023/06/08 17:29:24;;;;;;;3.97;1.08;;;16.80;99.90;;;;;;5094062;28;20056;-83
2023/06/08 17:32:00;;;;;;;5.15;1.00;;;16.70;99.90;;;;;;5092147;28;20098;-86
2023/06/08 17:35:00;;;;;;;6.05;1.42;;;16.50;99.90;;;;;;5095234;28;20420;-87
2023/06/08 17:37:31;;;;;;;7.07;1.02;;;16.40;99.90;;;;;;5093469;28;20143;-85
2023/06/08 17:40:25;;;;;;;;;;;;;;;;;;;;;
2023/06/08 17:43:02;;;;;;;5.88;1.00;;;16.40;99.90;;;;;;5092723;28;20597;-85
2023/06/08 18:00:14;;;;;;;5.72;1.17;;;16.00;99.90;;;;;;5095077;28;20093;-82
2023/06/08 18:02:57;;;;;;;6.75;1.00;;;16.00;99.90;;;;;;5095002;28;20043;-84
2023/06/08 18:05:34;;;;;;;11.73;1.67;;;15.90;99.90;;;;;;5077319;28;20146;-83
2023/06/08 18:08:07;;;;;;;9.15;1.13;;;16.00;99.90;;;;;;5093171;28;20156;-81
2023/06/08 18:10:57;;;;;;;5.05;0.75;;;15.90;99.90;;;;;;5094436;28;20058;-83
2023/06/08 18:13:32;;;;;;;12.80;1.35;;;15.80;99.90;;;;;;5093782;28;20070;-84
2023/06/08 18:16:12;;;;;;;6.75;1.17;;;15.70;99.90;;;;;;5093079;28;20507;-85
2023/06/08 18:18:56;;;;;;;9.82;2.35;;;15.70;99.90;;;;;;5095306;28;20416;-87
2023/06/08 18:36:26;;;;;;;7.65;1.40;;;15.30;99.90;;;;;;5095215;28;20442;-84
2023/06/08 18:38:58;;;;;;;8.93;1.65;;;15.00;99.90;;;;;;5074328;28;20052;-88
2023/06/08 18:41:25;;;;;;;4.93;1.10;;;14.90;99.90;;;;;;5066601;28;20046;-86
2023/06/08 18:43:52;;;;;;;13.43;1.80;;;14.80;99.90;;;;;;5113024;28;20052;-88
2023/06/08 18:46:23;;;;;;;7.32;1.45;;;14.80;99.90;;;;;;5078850;28;20476;-88
2023/06/08 18:48:54;;;;;;;7.47;1.35;;;14.70;99.90;;;;;;5114038;28;20054;-87
2023/06/08 18:51:25;;;;;;;5.57;1.63;;;14.70;99.90;;;;;;5091946;28;20055;-85
2023/06/08 18:53:56;;;;;;;8.15;1.50;;;14.50;99.90;;;;;;5070892;28;20568;-86
2023/06/08 19:03:45;;;;;;;11.93;1.63;;;14.30;99.90;;;;;;5100626;28;20051;-85
2023/06/08 19:06:13;;;;;;;8.45;1.42;;;14.20;99.90;;;;;;5093194;28;20036;-86
2023/06/08 19:08:40;;;;;;;11.65;2.47;;;14.20;99.90;;;;;;5077640;28;20060;-85
2023/06/08 19:11:12;;;;;;;8.65;1.58;;;14.10;99.90;;;;;;5072859;28;20425;-86
2023/06/08 19:13:42;;;;;;;9.25;1.77;;;14.00;99.90;;;;;;5087320;28;20040;-86
2023/06/08 19:16:14;;;;;;;4.53;1.70;;;14.10;99.90;;;;;;5092077;28;20110;-86
2023/06/08 19:18:49;;;;;;;8.70;2.70;;;14.00;99.90;;;;;;5092655;28;20051;-86
2023/06/08 19:21:23;;;;;;;6.05;1.50;;;13.80;99.90;;;;;;5087993;28;20036;-86
2023/06/08 19:35:09;;;;;;;8.15;1.70;;;13.60;99.90;;;;;;5092980;28;20078;-85
2023/06/08 19:37:41;;;;;;;;;;;13.60;99.90;;;;;;5092096;28;20055;-85
2023/06/08 19:40:20;;;;;;;10.23;2.17;;;13.60;99.90;;;;;;5092516;28;19920;-86
2023/06/08 19:42:53;;;;;;;9.43;1.77;;;13.50;99.90;;;;;;5093117;28;20048;-86
2023/06/08 19:45:23;;;;;;;9.98;2.53;;;13.40;99.90;;;;;;5085153;28;20059;-86
2023/06/08 19:48:04;;;;;;;10.70;2.40;;;13.30;99.90;;;;;;5084595;28;20146;-88
2023/06/08 19:50:55;;;;;;;11.68;2.58;;;13.20;99.90;;;;;;5089956;28;20039;-87
2023/06/08 19:53:29;;;;;;;7.07;1.95;;;13.20;99.90;;;;;;5071564;28;20107;-87
2023/06/08 20:07:09;;;;;;;11.25;2.08;;;12.90;99.90;;;;;;5072810;28;20093;-86
2023/06/08 20:09:51;;;;;;;8.68;1.98;;;12.80;99.90;;;;;;5098818;28;20054;-87
2023/06/08 20:12:23;;;;;;;13.55;3.38;;;12.70;99.90;;;;;;5111973;28;20484;-87
2023/06/08 20:14:58;;;;;;;25.58;3.55;;;12.60;99.90;;;;;;5113188;28;20494;-87
2023/06/08 20:17:44;;;;;;;12.88;2.35;;;12.60;99.90;;;;;;5112974;28;20088;-87
2023/06/08 20:20:23;;;;;;;9.23;2.25;;;12.60;99.90;;;;;;5094605;28;20044;-87
2023/06/08 20:23:02;;;;;;;8.70;2.13;;;12.50;99.90;;;;;;5094942;28;20040;-87
2023/06/08 20:25:46;;;;;;;9.13;2.10;;;12.50;99.90;;;;;;5113112;28;20393;-87
2023/06/08 20:35:47;;;;;;;10.93;2.90;;;12.40;99.90;;;;;;5075495;28;20060;-86
2023/06/08 20:38:48;;;;;;;;;;;;;;;;;;;;;
2023/06/08 20:41:42;;;;;;;;;;;;;;;;;;;;;
2023/06/08 20:44:22;;;;;;;11.75;3.13;;;12.20;99.90;;;;;;5092158;28;20137;-86
2023/06/08 20:47:12;;;;;;;11.70;2.58;;;12.20;99.90;;;;;;5092285;28;20488;-86
2023/06/08 20:50:02;;;;;;;10.63;2.40;;;12.20;99.90;;;;;;5092170;28;20131;-86
2023/06/08 20:52:52;;;;;;;8.00;2.03;;;12.20;99.90;;;;;;5092168;28;20545;-86
2023/06/08 21:03:06;;;;;;;7.15;1.75;;;12.10;99.90;;;;;;5096982;28;20412;-87
2023/06/08 21:05:45;;;;;;;7.57;2.13;;;12.10;99.90;;;;;;5093918;28;20051;-86
2023/06/08 21:08:37;;;;;;;7.35;1.98;;;12.00;99.90;;;;;;5097192;28;20059;-86
2023/06/08 21:11:22;;;;;;;5.32;1.65;;;12.00;99.90;;;;;;5097819;28;20048;-86
2023/06/08 21:14:16;;;;;;;12.93;2.95;;;12.00;99.90;;;;;;5115987;28;20114;-86
2023/06/08 21:17:07;;;;;;;5.38;1.88;;;12.00;99.90;;;;;;5115937;28;20044;-86
2023/06/08 21:19:57;;;;;;;7.95;1.58;;;12.00;99.90;;;;;;5115795;28;20388;-86
2023/06/08 21:37:43;;;;;;;8.80;2.22;;;11.90;99.90;;;;;;5095170;28;20737;-85
2023/06/08 21:44:02;;;;;;;7.85;2.03;;;11.70;99.90;;;;;;5115388;28;20398;-86
2023/06/08 21:46:45;;;;;;;10.13;2.10;;;11.70;99.90;;;;;;5115429;28;20511;-86
2023/06/08 21:49:45;;;;;;;9.55;2.33;;;11.60;99.90;;;;;;5115278;28;20090;-86
2023/06/08 21:52:46;;;;;;;;;;;;;;;;;;;;;
2023/06/08 21:55:36;;;;;;;6.25;2.55;;;11.50;99.90;;;;;;5079357;28;20117;-86
2023/06/08 21:58:26;;;;;;;6.18;1.83;;;11.50;99.90;;;;;;5114417;28;20172;-86
2023/06/08 22:01:20;;;;;;;8.88;2.28;;;11.50;99.90;;;;;;5113819;28;20048;-87
2023/06/08 22:04:10;;;;;;;10.98;2.40;;;11.40;99.90;;;;;;5114866;28;20078;-85
2023/06/08 22:07:10;;;;;;;6.43;1.90;;;11.40;99.90;;;;;;5114872;28;20054;-86
2023/06/08 22:10:05;;;;;;;7.88;2.00;;;11.40;99.90;;;;;;5113677;28;20064;-87
2023/06/08 22:13:07;;;;;;;;;;;;;;;;;;;;;
2023/06/08 22:15:54;;;;;;;6.47;1.90;;;11.40;99.90;;;;;;5114565;28;20039;-87
2023/06/08 22:48:18;;;;;;;6.70;2.45;;;11.20;99.90;;;;;;5104578;28;20057;-86
2023/06/08 22:51:02;;;;;;;8.02;1.92;;;11.20;99.90;;;;;;5077491;28;20435;-88
2023/06/08 22:53:46;;;;;;;9.35;2.40;;;11.20;99.90;;;;;;5094159;28;20135;-90
2023/06/08 22:56:33;;;;;;;7.35;2.10;;;11.20;99.90;;;;;;5094018;28;20508;-89